sensor_id;sensor_type;location;lat;lon;timestamp;temperature;humidity
36716;DHT22;22699;51.034;3.730;2023-04-01T00:00:53;10.20;99.90
36716;DHT22;22699;51.034;3.730;2023-04-01T00:03:19;10.20;99.90
36716;DHT22;22699;51.034;3.730;2023-04-01T00:05:48;10.20;99.90
36716;DHT22;22699;51.034;3.730;2023-04-01T00:08:14;10.20;99.90
36716;DHT22;22699;51.034;3.730;2023-04-01T00:10:40;10.10;99.90
36716;DHT22;22699;51.034;3.730;2023-04-01T00:13:12;10.20;99.90
36716;DHT22;22699;51.034;3.730;2023-04-01T00:15:40;10.40;99.90
36716;DHT22;22699;51.034;3.730;2023-04-01T00:18:06;10.20;99.90
36716;DHT22;22699;51.034;3.730;2023-04-01T00:20:32;10.30;99.90
36716;DHT22;22699;51.034;3.730;2023-04-01T00:22:57;10.40;99.90
36716;DHT22;22699;51.034;3.730;2023-04-01T00:25:25;10.40;99.90
36716;DHT22;22699;51.034;3.730;2023-04-01T00:27:51;10.40;99.90
36716;DHT22;22699;51.034;3.730;2023-04-01T00:30:18;10.50;99.90
36716;DHT22;22699;51.034;3.730;2023-04-01T00:33:02;10.60;99.90
36716;DHT22;22699;51.034;3.730;2023-04-01T00:35:28;10.70;99.90
36716;DHT22;22699;51.034;3.730;2023-04-01T00:37:58;10.70;99.90
36716;DHT22;22699;51.034;3.730;2023-04-01T00:40:29;10.80;99.90
36716;DHT22;22699;51.034;3.730;2023-04-01T00:42:58;10.80;99.90
36716;DHT22;22699;51.034;3.730;2023-04-01T00:45:36;10.80;99.90
36716;DHT22;22699;51.034;3.730;2023-04-01T00:50:42;10.70;99.90
36716;DHT22;22699;51.034;3.730;2023-04-01T00:53:09;10.80;99.90
36716;DHT22;22699;51.034;3.730;2023-04-01T00:55:38;10.80;99.90
36716;DHT22;22699;51.034;3.730;2023-04-01T00:58:08;10.80;99.90
36716;DHT22;22699;51.034;3.730;2023-04-01T01:00:34;10.80;99.90
36716;DHT22;22699;51.034;3.730;2023-04-01T01:03:01;10.70;99.90
36716;DHT22;22699;51.034;3.730;2023-04-01T01:06:18;10.60;99.90
36716;DHT22;22699;51.034;3.730;2023-04-01T01:09:05;10.80;99.90
36716;DHT22;22699;51.034;3.730;2023-04-01T01:11:50;11.00;99.90
36716;DHT22;22699;51.034;3.730;2023-04-01T01:17:32;10.80;99.90
36716;DHT22;22699;51.034;3.730;2023-04-01T01:20:24;10.80;99.90
36716;DHT22;22699;51.034;3.730;2023-04-01T01:32:07;10.60;99.90
36716;DHT22;22699;51.034;3.730;2023-04-01T01:34:53;10.50;99.90
36716;DHT22;22699;51.034;3.730;2023-04-01T01:37:23;10.40;99.90
36716;DHT22;22699;51.034;3.730;2023-04-01T01:39:55;10.50;99.90
36716;DHT22;22699;51.034;3.730;2023-04-01T01:42:30;10.60;99.90
36716;DHT22;22699;51.034;3.730;2023-04-01T01:44:57;10.50;99.90
36716;DHT22;22699;51.034;3.730;2023-04-01T01:47:25;10.50;99.90
36716;DHT22;22699;51.034;3.730;2023-04-01T01:49:53;10.50;99.90
36716;DHT22;22699;51.034;3.730;2023-04-01T01:52:22;10.30;99.90
36716;DHT22;22699;51.034;3.730;2023-04-01T01:54:50;10.20;99.90
36716;DHT22;22699;51.034;3.730;2023-04-01T01:57:20;10.30;99.90
36716;DHT22;22699;51.034;3.730;2023-04-01T01:59:48;10.70;99.90
36716;DHT22;22699;51.034;3.730;2023-04-01T02:02:16;10.30;99.90
36716;DHT22;22699;51.034;3.730;2023-04-01T02:04:47;10.30;99.90
36716;DHT22;22699;51.034;3.730;2023-04-01T02:07:33;10.40;99.90
36716;DHT22;22699;51.034;3.730;2023-04-01T02:09:59;10.60;99.90
36716;DHT22;22699;51.034;3.730;2023-04-01T02:12:26;10.60;99.90
36716;DHT22;22699;51.034;3.730;2023-04-01T02:14:59;10.60;99.90
36716;DHT22;22699;51.034;3.730;2023-04-01T02:17:29;10.70;99.90
36716;DHT22;22699;51.034;3.730;2023-04-01T02:20:07;10.80;99.90
36716;DHT22;22699;51.034;3.730;2023-04-01T02:22:38;10.80;99.90
36716;DHT22;22699;51.034;3.730;2023-04-01T02:25:19;10.80;99.90
36716;DHT22;22699;51.034;3.730;2023-04-01T02:27:45;10.80;99.90
36716;DHT22;22699;51.034;3.730;2023-04-01T02:30:13;10.90;99.90
36716;DHT22;22699;51.034;3.730;2023-04-01T02:32:40;11.00;99.90
36716;DHT22;22699;51.034;3.730;2023-04-01T02:35:09;11.00;99.90
36716;DHT22;22699;51.034;3.730;2023-04-01T02:37:37;10.90;99.90
36716;DHT22;22699;51.034;3.730;2023-04-01T02:40:05;10.90;99.90
36716;DHT22;22699;51.034;3.730;2023-04-01T02:42:34;10.90;99.90
36716;DHT22;22699;51.034;3.730;2023-04-01T02:45:00;10.90;99.90
36716;DHT22;22699;51.034;3.730;2023-04-01T02:47:26;10.90;99.90
36716;DHT22;22699;51.034;3.730;2023-04-01T02:49:52;10.90;99.90
36716;DHT22;22699;51.034;3.730;2023-04-01T02:52:28;10.90;99.90
36716;DHT22;22699;51.034;3.730;2023-04-01T02:54:54;11.00;99.90
36716;DHT22;22699;51.034;3.730;2023-04-01T02:57:20;11.00;99.90
36716;DHT22;22699;51.034;3.730;2023-04-01T02:59:46;11.00;99.90
36716;DHT22;22699;51.034;3.730;2023-04-01T03:02:23;11.00;99.90
36716;DHT22;22699;51.034;3.730;2023-04-01T03:04:49;11.00;99.90
36716;DHT22;22699;51.034;3.730;2023-04-01T03:07:15;10.90;99.90
36716;DHT22;22699;51.034;3.730;2023-04-01T03:09:45;10.90;99.90
36716;DHT22;22699;51.034;3.730;2023-04-01T03:12:10;10.90;99.90
36716;DHT22;22699;51.034;3.730;2023-04-01T03:14:36;11.00;99.90
36716;DHT22;22699;51.034;3.730;2023-04-01T03:17:02;11.00;99.90
36716;DHT22;22699;51.034;3.730;2023-04-01T03:19:27;10.90;99.90
36716;DHT22;22699;51.034;3.730;2023-04-01T03:22:12;11.00;99.90
36716;DHT22;22699;51.034;3.730;2023-04-01T03:24:37;11.00;99.90
36716;DHT22;22699;51.034;3.730;2023-04-01T03:27:03;11.10;99.90
36716;DHT22;22699;51.034;3.730;2023-04-01T03:29:28;11.00;99.90
36716;DHT22;22699;51.034;3.730;2023-04-01T03:32:00;10.80;99.90
36716;DHT22;22699;51.034;3.730;2023-04-01T03:34:27;10.90;99.90
36716;DHT22;22699;51.034;3.730;2023-04-01T03:36:53;10.80;99.90
36716;DHT22;22699;51.034;3.730;2023-04-01T03:39:18;11.00;99.90
36716;DHT22;22699;51.034;3.730;2023-04-01T03:41:45;11.10;99.90
36716;DHT22;22699;51.034;3.730;2023-04-01T03:44:11;11.10;99.90
36716;DHT22;22699;51.034;3.730;2023-04-01T03:46:37;11.10;99.90
36716;DHT22;22699;51.034;3.730;2023-04-01T03:49:06;11.00;99.90
36716;DHT22;22699;51.034;3.730;2023-04-01T03:51:38;10.90;99.90
36716;DHT22;22699;51.034;3.730;2023-04-01T03:54:06;10.90;99.90
36716;DHT22;22699;51.034;3.730;2023-04-01T03:56:32;10.90;99.90
36716;DHT22;22699;51.034;3.730;2023-04-01T03:58:58;11.00;99.90
36716;DHT22;22699;51.034;3.730;2023-04-01T04:01:24;11.00;99.90
36716;DHT22;22699;51.034;3.730;2023-04-01T04:03:50;11.00;99.90
36716;DHT22;22699;51.034;3.730;2023-04-01T04:06:17;10.90;99.90
36716;DHT22;22699;51.034;3.730;2023-04-01T04:08:43;10.90;99.90
36716;DHT22;22699;51.034;3.730;2023-04-01T04:11:09;10.80;99.90
36716;DHT22;22699;51.034;3.730;2023-04-01T04:13:35;10.80;99.90
36716;DHT22;22699;51.034;3.730;2023-04-01T04:16:05;10.90;99.90
36716;DHT22;22699;51.034;3.730;2023-04-01T04:18:30;10.80;99.90
36716;DHT22;22699;51.034;3.730;2023-04-01T04:20:56;10.90;99.90
36716;DHT22;22699;51.034;3.730;2023-04-01T04:23:22;10.80;99.90
36716;DHT22;22699;51.034;3.730;2023-04-01T04:26:01;10.80;99.90
36716;DHT22;22699;51.034;3.730;2023-04-01T04:28:28;10.70;99.90
36716;DHT22;22699;51.034;3.730;2023-04-01T04:30:54;10.80;99.90
36716;DHT22;22699;51.034;3.730;2023-04-01T04:33:24;10.70;99.90
36716;DHT22;22699;51.034;3.730;2023-04-01T04:35:51;10.80;99.90
36716;DHT22;22699;51.034;3.730;2023-04-01T04:38:17;10.90;99.90
36716;DHT22;22699;51.034;3.730;2023-04-01T04:40:43;10.90;99.90
36716;DHT22;22699;51.034;3.730;2023-04-01T04:43:13;10.80;99.90
36716;DHT22;22699;51.034;3.730;2023-04-01T04:45:39;10.90;99.90
36716;DHT22;22699;51.034;3.730;2023-04-01T04:48:08;10.80;99.90
36716;DHT22;22699;51.034;3.730;2023-04-01T04:50:34;10.80;99.90
36716;DHT22;22699;51.034;3.730;2023-04-01T04:53:00;10.70;99.90
36716;DHT22;22699;51.034;3.730;2023-04-01T04:55:25;10.80;99.90
36716;DHT22;22699;51.034;3.730;2023-04-01T04:57:51;10.80;99.90
36716;DHT22;22699;51.034;3.730;2023-04-01T05:00:17;10.80;99.90
36716;DHT22;22699;51.034;3.730;2023-04-01T05:02:45;10.70;99.90
36716;DHT22;22699;51.034;3.730;2023-04-01T05:05:11;10.70;99.90
36716;DHT22;22699;51.034;3.730;2023-04-01T05:07:37;10.70;99.90
36716;DHT22;22699;51.034;3.730;2023-04-01T05:10:03;10.70;99.90
36716;DHT22;22699;51.034;3.730;2023-04-01T05:12:29;10.60;99.90
36716;DHT22;22699;51.034;3.730;2023-04-01T05:14:55;10.70;99.90
36716;DHT22;22699;51.034;3.730;2023-04-01T05:17:21;10.70;99.90
36716;DHT22;22699;51.034;3.730;2023-04-01T05:19:47;10.70;99.90
36716;DHT22;22699;51.034;3.730;2023-04-01T05:22:12;10.80;99.90
36716;DHT22;22699;51.034;3.730;2023-04-01T05:24:39;10.80;99.90
36716;DHT22;22699;51.034;3.730;2023-04-01T05:27:04;10.80;99.90
36716;DHT22;22699;51.034;3.730;2023-04-01T05:29:30;10.80;99.90
36716;DHT22;22699;51.034;3.730;2023-04-01T05:31:55;10.80;99.90
36716;DHT22;22699;51.034;3.730;2023-04-01T05:34:21;11.00;99.90
36716;DHT22;22699;51.034;3.730;2023-04-01T05:36:46;11.00;99.90
36716;DHT22;22699;51.034;3.730;2023-04-01T05:39:12;11.10;99.90
36716;DHT22;22699;51.034;3.730;2023-04-01T05:41:44;10.90;99.90
36716;DHT22;22699;51.034;3.730;2023-04-01T05:44:23;10.80;99.90
36716;DHT22;22699;51.034;3.730;2023-04-01T05:47:34;10.90;99.90
36716;DHT22;22699;51.034;3.730;2023-04-01T05:50:27;10.90;99.90
36716;DHT22;22699;51.034;3.730;2023-04-01T05:53:00;10.90;99.90
36716;DHT22;22699;51.034;3.730;2023-04-01T05:56:13;11.00;99.90
36716;DHT22;22699;51.034;3.730;2023-04-01T05:59:06;10.90;99.90
36716;DHT22;22699;51.034;3.730;2023-04-01T06:01:50;11.00;99.90
36716;DHT22;22699;51.034;3.730;2023-04-01T06:04:26;10.90;99.90
36716;DHT22;22699;51.034;3.730;2023-04-01T06:07:29;11.00;99.90
36716;DHT22;22699;51.034;3.730;2023-04-01T06:09:56;11.10;99.90
36716;DHT22;22699;51.034;3.730;2023-04-01T06:13:01;11.10;99.90
36716;DHT22;22699;51.034;3.730;2023-04-01T06:15:40;11.00;99.90
36716;DHT22;22699;51.034;3.730;2023-04-01T06:43:01;11.20;99.90
36716;DHT22;22699;51.034;3.730;2023-04-01T06:45:58;11.10;99.90
36716;DHT22;22699;51.034;3.730;2023-04-01T06:51:51;11.10;99.90
36716;DHT22;22699;51.034;3.730;2023-04-01T06:54:46;11.10;99.90
36716;DHT22;22699;51.034;3.730;2023-04-01T06:57:34;11.30;99.90
36716;DHT22;22699;51.034;3.730;2023-04-01T07:00:33;11.30;99.90
36716;DHT22;22699;51.034;3.730;2023-04-01T07:06:31;11.30;99.90
36716;DHT22;22699;51.034;3.730;2023-04-01T07:09:35;11.20;99.90
36716;DHT22;22699;51.034;3.730;2023-04-01T07:14:58;11.40;99.90
36716;DHT22;22699;51.034;3.730;2023-04-01T07:17:32;11.30;99.90
36716;DHT22;22699;51.034;3.730;2023-04-01T07:20:11;11.40;99.90
36716;DHT22;22699;51.034;3.730;2023-04-01T07:22:51;11.40;99.90
36716;DHT22;22699;51.034;3.730;2023-04-01T07:25:21;11.40;99.90
36716;DHT22;22699;51.034;3.730;2023-04-01T07:27:50;11.30;99.90
36716;DHT22;22699;51.034;3.730;2023-04-01T07:30:20;11.30;99.90
36716;DHT22;22699;51.034;3.730;2023-04-01T07:33:15;11.30;99.90
36716;DHT22;22699;51.034;3.730;2023-04-01T07:35:53;11.40;99.90
36716;DHT22;22699;51.034;3.730;2023-04-01T07:47:15;11.30;99.90
36716;DHT22;22699;51.034;3.730;2023-04-01T07:50:13;11.30;99.90
36716;DHT22;22699;51.034;3.730;2023-04-01T08:10:03;11.40;99.90
36716;DHT22;22699;51.034;3.730;2023-04-01T08:21:20;11.50;99.90
36716;DHT22;22699;51.034;3.730;2023-04-01T08:27:44;11.60;99.90
36716;DHT22;22699;51.034;3.730;2023-04-01T08:33:33;11.50;99.90
36716;DHT22;22699;51.034;3.730;2023-04-01T08:39:41;11.60;99.90
36716;DHT22;22699;51.034;3.730;2023-04-01T08:43:02;11.70;99.90
36716;DHT22;22699;51.034;3.730;2023-04-01T08:52:15;11.70;99.90
36716;DHT22;22699;51.034;3.730;2023-04-01T09:13:42;12.20;99.90
36716;DHT22;22699;51.034;3.730;2023-04-01T09:22:08;12.30;99.90
36716;DHT22;22699;51.034;3.730;2023-04-01T09:25:06;12.30;99.90
36716;DHT22;22699;51.034;3.730;2023-04-01T09:34:09;12.10;99.90
36716;DHT22;22699;51.034;3.730;2023-04-01T09:42:42;12.40;99.90
36716;DHT22;22699;51.034;3.730;2023-04-01T09:45:18;12.30;99.90
36716;DHT22;22699;51.034;3.730;2023-04-01T09:48:45;12.50;99.90
36716;DHT22;22699;51.034;3.730;2023-04-01T09:57:22;12.20;99.90
36716;DHT22;22699;51.034;3.730;2023-04-01T10:59:35;14.10;99.90
36716;DHT22;22699;51.034;3.730;2023-04-01T11:11:06;13.40;99.90
36716;DHT22;22699;51.034;3.730;2023-04-01T11:20:20;13.60;99.90
36716;DHT22;22699;51.034;3.730;2023-04-01T11:31:58;13.00;99.90
36716;DHT22;22699;51.034;3.730;2023-04-01T11:34:28;12.90;99.90
36716;DHT22;22699;51.034;3.730;2023-04-01T11:40:11;12.90;99.90
36716;DHT22;22699;51.034;3.730;2023-04-01T11:50:55;13.00;99.90
36716;DHT22;22699;51.034;3.730;2023-04-01T12:02:14;13.30;99.90
36716;DHT22;22699;51.034;3.730;2023-04-01T12:08:11;13.20;99.90
36716;DHT22;22699;51.034;3.730;2023-04-01T12:27:26;13.00;99.90
36716;DHT22;22699;51.034;3.730;2023-04-01T12:30:24;13.00;99.90
36716;DHT22;22699;51.034;3.730;2023-04-01T12:41:20;13.30;99.90
36716;DHT22;22699;51.034;3.730;2023-04-01T12:49:52;12.80;99.90
36716;DHT22;22699;51.034;3.730;2023-04-01T12:58:03;12.60;99.90
36716;DHT22;22699;51.034;3.730;2023-04-01T13:06:26;12.60;99.90
36716;DHT22;22699;51.034;3.730;2023-04-01T13:09:10;12.60;99.90
36716;DHT22;22699;51.034;3.730;2023-04-01T13:12:36;12.80;99.90
36716;DHT22;22699;51.034;3.730;2023-04-01T13:15:35;12.70;99.90
36716;DHT22;22699;51.034;3.730;2023-04-01T13:18:17;12.70;99.90
36716;DHT22;22699;51.034;3.730;2023-04-01T13:29:40;12.60;99.90
36716;DHT22;22699;51.034;3.730;2023-04-01T13:32:27;12.70;99.90
36716;DHT22;22699;51.034;3.730;2023-04-01T13:35:08;12.80;99.90
36716;DHT22;22699;51.034;3.730;2023-04-01T13:37:45;12.90;99.90
36716;DHT22;22699;51.034;3.730;2023-04-01T13:40:40;12.90;99.90
36716;DHT22;22699;51.034;3.730;2023-04-01T13:43:19;13.00;99.90
36716;DHT22;22699;51.034;3.730;2023-04-01T13:46:20;13.00;99.90
36716;DHT22;22699;51.034;3.730;2023-04-01T13:59:37;12.80;99.90
36716;DHT22;22699;51.034;3.730;2023-04-01T14:02:29;12.70;99.90
36716;DHT22;22699;51.034;3.730;2023-04-01T14:10:55;12.70;99.90
36716;DHT22;22699;51.034;3.730;2023-04-01T14:13:58;12.80;99.90
36716;DHT22;22699;51.034;3.730;2023-04-01T14:16:23;12.70;99.90
36716;DHT22;22699;51.034;3.730;2023-04-01T14:24:22;12.60;99.90
36716;DHT22;22699;51.034;3.730;2023-04-01T14:29:57;12.90;99.90
36716;DHT22;22699;51.034;3.730;2023-04-01T14:32:46;12.90;99.90
36716;DHT22;22699;51.034;3.730;2023-04-01T14:35:38;13.00;99.90
36716;DHT22;22699;51.034;3.730;2023-04-01T14:43:49;13.00;99.90
36716;DHT22;22699;51.034;3.730;2023-04-01T14:46:48;12.90;99.90
36716;DHT22;22699;51.034;3.730;2023-04-01T14:52:15;12.50;99.90
36716;DHT22;22699;51.034;3.730;2023-04-01T14:54:46;12.50;99.90
36716;DHT22;22699;51.034;3.730;2023-04-01T14:57:31;12.50;99.90
36716;DHT22;22699;51.034;3.730;2023-04-01T15:00:14;12.50;99.90
36716;DHT22;22699;51.034;3.730;2023-04-01T15:08:20;12.60;99.90
36716;DHT22;22699;51.034;3.730;2023-04-01T15:11:02;12.50;99.90
36716;DHT22;22699;51.034;3.730;2023-04-01T15:16:27;12.60;99.90
36716;DHT22;22699;51.034;3.730;2023-04-01T15:22:00;12.50;99.90
36716;DHT22;22699;51.034;3.730;2023-04-01T15:24:40;12.20;99.90
36716;DHT22;22699;51.034;3.730;2023-04-01T15:30:21;12.20;99.90
36716;DHT22;22699;51.034;3.730;2023-04-01T15:38:48;12.40;99.90
36716;DHT22;22699;51.034;3.730;2023-04-01T15:41:29;12.30;99.90
36716;DHT22;22699;51.034;3.730;2023-04-01T15:44:00;12.20;99.90
36716;DHT22;22699;51.034;3.730;2023-04-01T15:46:46;12.20;99.90
36716;DHT22;22699;51.034;3.730;2023-04-01T15:49:33;12.20;99.90
36716;DHT22;22699;51.034;3.730;2023-04-01T15:52:17;12.20;99.90
36716;DHT22;22699;51.034;3.730;2023-04-01T16:00:23;12.00;99.90
36716;DHT22;22699;51.034;3.730;2023-04-01T16:03:13;12.00;99.90
36716;DHT22;22699;51.034;3.730;2023-04-01T16:11:39;12.10;99.90
36716;DHT22;22699;51.034;3.730;2023-04-01T16:14:26;12.10;99.90
36716;DHT22;22699;51.034;3.730;2023-04-01T16:22:39;12.00;99.90
36716;DHT22;22699;51.034;3.730;2023-04-01T16:33:50;11.80;99.90
36716;DHT22;22699;51.034;3.730;2023-04-01T16:36:33;11.80;99.90
36716;DHT22;22699;51.034;3.730;2023-04-01T16:42:38;11.70;99.90
36716;DHT22;22699;51.034;3.730;2023-04-01T16:50:53;11.70;99.90
36716;DHT22;22699;51.034;3.730;2023-04-01T16:53:43;11.60;99.90
36716;DHT22;22699;51.034;3.730;2023-04-01T16:56:24;11.60;99.90
36716;DHT22;22699;51.034;3.730;2023-04-01T16:59:13;11.60;99.90
36716;DHT22;22699;51.034;3.730;2023-04-01T17:02:10;11.50;99.90
36716;DHT22;22699;51.034;3.730;2023-04-01T17:10:10;11.30;99.90
36716;DHT22;22699;51.034;3.730;2023-04-01T17:12:43;11.30;99.90
36716;DHT22;22699;51.034;3.730;2023-04-01T17:23:39;11.10;99.90
36716;DHT22;22699;51.034;3.730;2023-04-01T17:31:45;10.80;99.90
36716;DHT22;22699;51.034;3.730;2023-04-01T17:34:42;10.80;99.90
36716;DHT22;22699;51.034;3.730;2023-04-01T17:43:47;10.60;99.90
36716;DHT22;22699;51.034;3.730;2023-04-01T17:49:19;10.70;99.90
36716;DHT22;22699;51.034;3.730;2023-04-01T18:06:19;10.80;99.90
36716;DHT22;22699;51.034;3.730;2023-04-01T18:14:07;10.80;99.90
36716;DHT22;22699;51.034;3.730;2023-04-01T18:26:22;10.60;99.90
36716;DHT22;22699;51.034;3.730;2023-04-01T18:29:01;10.50;99.90
36716;DHT22;22699;51.034;3.730;2023-04-01T19:04:36;10.20;99.90
36716;DHT22;22699;51.034;3.730;2023-04-01T19:13:57;10.30;99.90
36716;DHT22;22699;51.034;3.730;2023-04-01T19:20:18;10.20;99.90
36716;DHT22;22699;51.034;3.730;2023-04-01T19:26:18;10.20;99.90
36716;DHT22;22699;51.034;3.730;2023-04-01T19:48:17;10.30;99.90
36716;DHT22;22699;51.034;3.730;2023-04-01T20:06:15;10.20;99.90
36716;DHT22;22699;51.034;3.730;2023-04-01T20:15:21;10.20;99.90
36716;DHT22;22699;51.034;3.730;2023-04-01T20:18:26;10.20;99.90
36716;DHT22;22699;51.034;3.730;2023-04-01T20:24:41;10.10;99.90
36716;DHT22;22699;51.034;3.730;2023-04-01T20:41:06;10.10;99.90
36716;DHT22;22699;51.034;3.730;2023-04-01T20:52:29;10.10;99.90
36716;DHT22;22699;51.034;3.730;2023-04-01T20:58:44;10.10;99.90
36716;DHT22;22699;51.034;3.730;2023-04-01T21:05:00;10.20;99.90
36716;DHT22;22699;51.034;3.730;2023-04-01T21:11:14;10.20;99.90
36716;DHT22;22699;51.034;3.730;2023-04-01T21:23:48;9.90;99.90
36716;DHT22;22699;51.034;3.730;2023-04-01T21:29:47;10.00;99.90
36716;DHT22;22699;51.034;3.730;2023-04-01T21:35:54;9.90;99.90
36716;DHT22;22699;51.034;3.730;2023-04-01T21:57:52;10.10;99.90
36716;DHT22;22699;51.034;3.730;2023-04-01T22:00:25;10.10;99.90
36716;DHT22;22699;51.034;3.730;2023-04-01T22:09:25;10.00;99.90
36716;DHT22;22699;51.034;3.730;2023-04-01T22:12:57;10.00;99.90
36716;DHT22;22699;51.034;3.730;2023-04-01T22:15:45;10.00;99.90
36716;DHT22;22699;51.034;3.730;2023-04-01T22:18:33;10.00;99.90
36716;DHT22;22699;51.034;3.730;2023-04-01T22:23:47;10.00;99.90
36716;DHT22;22699;51.034;3.730;2023-04-01T22:26:27;9.90;99.90
36716;DHT22;22699;51.034;3.730;2023-04-01T22:29:32;9.80;99.90
36716;DHT22;22699;51.034;3.730;2023-04-01T22:32:21;9.90;99.90
36716;DHT22;22699;51.034;3.730;2023-04-01T22:38:36;9.80;99.90
36716;DHT22;22699;51.034;3.730;2023-04-01T22:45:10;9.80;99.90
36716;DHT22;22699;51.034;3.730;2023-04-01T22:51:07;9.70;99.90
36716;DHT22;22699;51.034;3.730;2023-04-01T22:54:02;9.80;99.90
36716;DHT22;22699;51.034;3.730;2023-04-01T22:57:04;9.70;99.90
36716;DHT22;22699;51.034;3.730;2023-04-01T23:00:11;9.80;99.90
36716;DHT22;22699;51.034;3.730;2023-04-01T23:06:12;9.80;99.90
36716;DHT22;22699;51.034;3.730;2023-04-01T23:11:54;9.70;99.90
36716;DHT22;22699;51.034;3.730;2023-04-01T23:14:55;9.70;99.90
36716;DHT22;22699;51.034;3.730;2023-04-01T23:17:38;9.70;99.90
36716;DHT22;22699;51.034;3.730;2023-04-01T23:23:30;9.80;99.90
36716;DHT22;22699;51.034;3.730;2023-04-01T23:32:02;9.70;99.90
36716;DHT22;22699;51.034;3.730;2023-04-01T23:35:11;9.70;99.90
36716;DHT22;22699;51.034;3.730;2023-04-01T23:37:51;9.60;99.90
36716;DHT22;22699;51.034;3.730;2023-04-01T23:40:53;9.70;99.90
36716;DHT22;22699;51.034;3.730;2023-04-01T23:44:28;9.70;99.90
36716;DHT22;22699;51.034;3.730;2023-04-01T23:46:57;9.70;99.90
36716;DHT22;22699;51.034;3.730;2023-04-01T23:49:30;10.00;99.90
36716;DHT22;22699;51.034;3.730;2023-04-01T23:54:53;9.60;99.90
36716;DHT22;22699;51.034;3.730;2023-04-01T23:57:26;9.70;99.90
